Time;durP1;ratioP1;P1;durP2;ratioP2;P2;SDS_P1;SDS_P2;PMS_P1;PMS_P2;Temp;Humidity;BMP_temperature;BMP_pressure;BME280_temperature;BME280_humidity;BME280_pressure;Samples;Min_cycle;Max_cycle;Signal;HPM_P1;HPM_P2
2023/07/10 00:00:22;;;;;;;;;;;21.80;99.90;;;;;;7331166;19;108755;-61
2023/07/10 00:02:50;;;;;;;;;;;21.80;99.90;;;;;;7334460;19;108812;-61
2023/07/10 00:05:18;;;;;;;;;;;21.80;99.90;;;;;;7332349;19;109905;-61
2023/07/10 00:07:45;;;;;;;;;;;21.70;99.90;;;;;;7333467;19;109195;-61
2023/07/10 00:10:14;;;;;;;;;;;21.70;99.90;;;;;;7331740;19;109236;-61
2023/07/10 00:12:41;;;;;;;;;;;21.60;99.90;;;;;;7329029;19;109902;-61
2023/07/10 00:15:11;;;;;;;;;;;21.60;99.90;;;;;;7333320;19;111812;-61
2023/07/10 00:17:39;;;;;;;;;;;21.50;99.90;;;;;;7334314;19;109036;-61
2023/07/10 00:20:13;;;;;;;;;;;21.50;99.90;;;;;;7333331;19;110957;-61
2023/07/10 00:22:40;;;;;;;;;;;21.60;99.90;;;;;;7332175;19;109817;-61
2023/07/10 00:25:08;;;;;;;;;;;21.60;99.90;;;;;;7328552;19;109141;-61
2023/07/10 00:27:36;;;;;;;;;;;21.60;99.90;;;;;;7329316;19;108793;-61
2023/07/10 00:30:12;;;;;;;;;;;21.60;99.90;;;;;;7329698;19;108556;-61
2023/07/10 00:32:39;;;;;;;;;;;21.60;99.90;;;;;;7330938;19;109871;-61
2023/07/10 00:35:06;;;;;;;;;;;21.60;99.90;;;;;;7328296;19;110740;-61
2023/07/10 00:37:34;;;;;;;;;;;21.60;99.90;;;;;;7329397;19;109923;-61
2023/07/10 00:40:01;;;;;;;;;;;21.60;99.90;;;;;;7329236;19;109713;-61
2023/07/10 00:42:29;;;;;;;;;;;21.50;99.90;;;;;;7334340;19;112509;-61
2023/07/10 00:44:58;;;;;;;;;;;21.50;99.90;;;;;;7325299;19;109117;-61
2023/07/10 00:47:25;;;;;;;;;;;21.50;99.90;;;;;;7327673;19;109128;-61
2023/07/10 00:50:00;;;;;;;;;;;21.50;99.90;;;;;;7331146;19;109417;-61
2023/07/10 00:52:29;;;;;;;;;;;21.50;99.90;;;;;;7330676;19;109048;-61
2023/07/10 00:54:57;;;;;;;;;;;21.50;99.90;;;;;;7330951;19;108708;-61
2023/07/10 00:57:42;;;;;;;;;;;21.50;99.90;;;;;;7331953;19;109700;-61
2023/07/10 01:00:17;;;;;;;;;;;21.40;99.90;;;;;;7330191;19;109117;-60
2023/07/10 01:02:45;;;;;;;;;;;21.40;99.90;;;;;;7330707;19;109110;-61
2023/07/10 01:05:13;;;;;;;;;;;21.40;99.90;;;;;;7335340;19;110010;-61
2023/07/10 01:07:41;;;;;;;;;;;21.30;99.90;;;;;;7325455;19;111250;-61
2023/07/10 01:10:09;;;;;;;;;;;21.30;99.90;;;;;;7337963;19;108911;-61
2023/07/10 01:12:38;;;;;;;;;;;21.40;99.90;;;;;;7336573;19;109140;-61
2023/07/10 01:15:06;;;;;;;;;;;21.30;99.90;;;;;;7336643;19;110882;-61
2023/07/10 01:17:33;;;;;;;;;;;21.30;99.90;;;;;;7335417;19;108951;-61
2023/07/10 01:20:03;;;;;;;;;;;21.30;99.90;;;;;;7337853;19;110963;-61
2023/07/10 01:22:30;;;;;;;;;;;21.30;99.90;;;;;;7334985;19;109565;-60
2023/07/10 01:24:57;;;;;;;;;;;21.20;99.90;;;;;;7337573;19;109081;-61
2023/07/10 01:27:28;;;;;;;;;;;21.20;99.90;;;;;;7335953;19;109064;-60
2023/07/10 01:30:03;;;;;;;;;;;21.20;99.90;;;;;;7335491;19;109278;-61
2023/07/10 01:32:30;;;;;;;;;;;21.10;99.90;;;;;;7331012;19;110532;-61
2023/07/10 01:34:59;;;;;;;;;;;21.10;99.90;;;;;;7336966;19;109408;-64
2023/07/10 01:37:26;;;;;;;;;;;21.10;99.90;;;;;;7333145;19;109257;-61
2023/07/10 01:39:54;;;;;;;;;;;21.00;99.90;;;;;;7333868;19;109882;-61
2023/07/10 01:42:21;;;;;;;;;;;20.90;99.90;;;;;;7335108;19;109099;-60
2023/07/10 01:44:49;;;;;;;;;;;20.70;99.90;;;;;;7333350;19;109680;-60
2023/07/10 01:47:17;;;;;;;;;;;20.60;99.90;;;;;;7340464;19;110011;-61
2023/07/10 01:49:44;;;;;;;;;;;20.50;99.90;;;;;;7335009;19;109178;-61
2023/07/10 01:52:12;;;;;;;;;;;20.60;99.90;;;;;;7334563;19;111534;-61
2023/07/10 01:54:41;;;;;;;;;;;20.60;99.90;;;;;;7338424;19;108623;-61
2023/07/10 01:57:09;;;;;;;;;;;20.60;99.90;;;;;;7337838;19;110050;-61
2023/07/10 01:59:37;;;;;;;;;;;20.60;99.90;;;;;;7336020;19;109446;-60
2023/07/10 02:02:04;;;;;;;;;;;20.60;99.90;;;;;;7337214;19;108641;-60
2023/07/10 02:04:31;;;;;;;;;;;20.60;99.90;;;;;;7336306;19;108623;-61
2023/07/10 02:06:59;;;;;;;;;;;20.60;99.90;;;;;;7335161;19;109585;-60
2023/07/10 02:09:27;;;;;;;;;;;20.60;99.90;;;;;;7342785;19;108542;-61
2023/07/10 02:11:55;;;;;;;;;;;20.60;99.90;;;;;;7333054;19;110323;-60
2023/07/10 02:14:22;;;;;;;;;;;20.60;99.90;;;;;;7335383;19;109481;-61
2023/07/10 02:16:49;;;;;;;;;;;20.50;99.90;;;;;;7330975;19;108632;-61
2023/07/10 02:19:18;;;;;;;;;;;20.50;99.90;;;;;;7333506;19;109990;-61
2023/07/10 02:21:45;;;;;;;;;;;20.50;99.90;;;;;;7334712;19;108577;-60
2023/07/10 02:24:12;;;;;;;;;;;20.40;99.90;;;;;;7332394;19;110069;-61
2023/07/10 02:26:39;;;;;;;;;;;20.40;99.90;;;;;;7334995;19;109921;-60
2023/07/10 02:29:07;;;;;;;;;;;20.30;99.90;;;;;;7336385;19;108966;-61
2023/07/10 02:31:34;;;;;;;;;;;20.30;99.90;;;;;;7340136;19;109715;-61
2023/07/10 02:34:01;;;;;;;;;;;20.20;99.90;;;;;;7329539;19;109765;-60
2023/07/10 02:36:28;;;;;;;;;;;20.20;99.90;;;;;;7333787;19;109089;-61
2023/07/10 02:38:56;;;;;;;;;;;20.10;99.90;;;;;;7335007;19;109080;-60
2023/07/10 02:41:23;;;;;;;;;;;20.10;99.90;;;;;;7335922;19;108923;-60
2023/07/10 02:43:50;;;;;;;;;;;20.10;99.90;;;;;;7336748;19;109297;-60
2023/07/10 02:46:17;;;;;;;;;;;20.00;99.90;;;;;;7332248;19;111168;-61
2023/07/10 02:48:45;;;;;;;;;;;19.90;99.90;;;;;;7335404;19;108422;-61
2023/07/10 02:51:12;;;;;;;;;;;19.80;99.90;;;;;;7334945;19;109845;-61
2023/07/10 02:53:39;;;;;;;;;;;19.80;99.90;;;;;;7340463;19;109758;-60
2023/07/10 02:56:06;;;;;;;;;;;19.80;99.90;;;;;;7332674;19;109614;-61
2023/07/10 02:58:34;;;;;;;;;;;19.70;99.90;;;;;;7333244;19;110017;-74
2023/07/10 03:01:02;;;;;;;;;;;19.70;99.90;;;;;;7328666;19;108615;-74
2023/07/10 03:03:30;;;;;;;;;;;19.70;99.90;;;;;;7335787;19;108717;-74
2023/07/10 03:05:59;;;;;;;;;;;19.50;99.90;;;;;;7332049;19;112868;-74
2023/07/10 03:08:27;;;;;;;;;;;19.50;99.90;;;;;;7336416;19;109040;-73
2023/07/10 03:11:13;;;;;;;;;;;19.40;99.90;;;;;;7336061;19;109852;-74
2023/07/10 03:13:40;;;;;;;;;;;19.40;99.90;;;;;;7333929;19;113659;-74
2023/07/10 03:16:09;;;;;;;;;;;19.30;99.90;;;;;;7338908;19;111847;-74
2023/07/10 03:18:37;;;;;;;;;;;19.30;99.90;;;;;;7335406;19;110933;-74
2023/07/10 03:21:04;;;;;;;;;;;19.20;99.90;;;;;;7332027;19;109014;-74
2023/07/10 03:23:31;;;;;;;;;;;19.20;99.90;;;;;;7336974;19;108451;-74
2023/07/10 03:25:58;;;;;;;;;;;19.10;99.90;;;;;;7334043;19;110981;-74
2023/07/10 03:28:27;;;;;;;;;;;19.00;99.90;;;;;;7334026;19;109670;-74
2023/07/10 03:30:54;;;;;;;;;;;19.00;99.90;;;;;;7332571;19;109557;-74
2023/07/10 03:33:21;;;;;;;;;;;18.90;99.90;;;;;;7332697;19;109604;-74
2023/07/10 03:35:56;;;;;;;;;;;18.80;99.90;;;;;;7340100;19;108999;-74
2023/07/10 03:38:24;;;;;;;;;;;18.80;99.90;;;;;;7334911;19;110128;-74
2023/07/10 03:40:51;;;;;;;;;;;18.70;99.90;;;;;;7334969;19;108433;-74
2023/07/10 03:43:19;;;;;;;;;;;18.70;99.90;;;;;;7334207;19;111534;-74
2023/07/10 03:45:46;;;;;;;;;;;18.70;99.90;;;;;;7331633;19;109212;-75
2023/07/10 03:48:13;;;;;;;;;;;18.70;99.90;;;;;;7334645;19;108829;-73
2023/07/10 03:50:41;;;;;;;;;;;18.70;99.90;;;;;;7333111;19;109259;-73
2023/07/10 03:53:08;;;;;;;;;;;18.60;99.90;;;;;;7334154;19;110015;-73
2023/07/10 03:55:35;;;;;;;;;;;18.60;99.90;;;;;;7334331;19;110597;-74
2023/07/10 03:58:22;;;;;;;;;;;18.60;99.90;;;;;;7338220;19;109455;-74
2023/07/10 04:00:50;;;;;;;;;;;18.50;99.90;;;;;;7330988;19;108836;-74
2023/07/10 04:03:20;;;;;;;;;;;18.40;99.90;;;;;;7336456;19;108438;-74
2023/07/10 04:05:52;;;;;;;;;;;18.30;99.90;;;;;;7332589;19;109151;-74
2023/07/10 04:08:23;;;;;;;;;;;18.30;99.90;;;;;;7336232;19;110543;-75
2023/07/10 04:10:51;;;;;;;;;;;18.30;99.90;;;;;;7335729;19;109208;-77
2023/07/10 04:13:19;;;;;;;;;;;18.30;99.90;;;;;;7331942;19;109140;-75
2023/07/10 04:15:58;;;;;;;;;;;18.20;99.90;;;;;;7333871;19;109427;-76
2023/07/10 04:18:26;;;;;;;;;;;18.20;99.90;;;;;;7331906;19;110131;-75
2023/07/10 04:20:53;;;;;;;;;;;18.20;99.90;;;;;;7340071;19;110424;-79
2023/07/10 04:23:24;;;;;;;;;;;18.20;99.90;;;;;;7332647;19;108390;-76
2023/07/10 04:25:51;;;;;;;;;;;18.30;99.90;;;;;;7335040;19;110223;-75
2023/07/10 04:28:18;;;;;;;;;;;18.30;99.90;;;;;;7330752;19;109054;-74
2023/07/10 04:30:46;;;;;;;;;;;18.40;99.90;;;;;;7333406;19;109646;-74
2023/07/10 04:33:14;;;;;;;;;;;18.40;99.90;;;;;;7331218;19;109441;-74
2023/07/10 04:35:50;;;;;;;;;;;18.40;99.90;;;;;;7334861;19;109397;-74
2023/07/10 04:38:17;;;;;;;;;;;18.40;99.90;;;;;;7333308;19;108999;-74
2023/07/10 04:40:58;;;;;;;;;;;18.40;99.90;;;;;;7334385;19;110118;-74
2023/07/10 04:43:26;;;;;;;;;;;18.50;99.90;;;;;;7345174;19;109429;-75
2023/07/10 04:45:56;;;;;;;;;;;18.50;99.90;;;;;;7336398;19;109418;-75
2023/07/10 04:48:24;;;;;;;;;;;18.50;99.90;;;;;;7340242;19;108751;-75
2023/07/10 04:50:52;;;;;;;;;;;18.60;99.90;;;;;;7339687;19;108821;-75
2023/07/10 04:53:19;;;;;;;;;;;18.70;99.90;;;;;;7337743;19;111320;-74
2023/07/10 04:55:50;;;;;;;;;;;18.70;99.90;;;;;;7339387;19;109972;-74
2023/07/10 04:58:18;;;;;;;;;;;18.80;99.90;;;;;;7339641;19;109229;-74
2023/07/10 05:00:55;;;;;;;;;;;18.90;99.90;;;;;;7336534;19;109926;-73
2023/07/10 05:03:22;;;;;;;;;;;18.90;99.90;;;;;;7339218;19;109308;-73
2023/07/10 05:05:50;;;;;;;;;;;19.00;99.90;;;;;;7343101;19;110463;-73
2023/07/10 05:08:17;;;;;;;;;;;19.00;99.90;;;;;;7339527;19;108542;-72
2023/07/10 05:10:44;;;;;;;;;;;19.10;99.90;;;;;;7338637;19;109423;-73
2023/07/10 05:13:11;;;;;;;;;;;19.20;99.90;;;;;;7337649;19;109867;-73
2023/07/10 05:15:39;;;;;;;;;;;19.20;99.90;;;;;;7339787;19;110349;-73
2023/07/10 05:18:06;;;;;;;;;;;19.30;99.90;;;;;;7337786;19;109028;-74
2023/07/10 05:20:33;;;;;;;;;;;19.30;99.90;;;;;;7340447;19;109891;-73
2023/07/10 05:23:00;;;;;;;;;;;19.40;99.90;;;;;;7337652;19;108366;-73
2023/07/10 05:25:27;;;;;;;;;;;19.50;99.90;;;;;;7336406;19;109235;-73
2023/07/10 05:27:54;;;;;;;;;;;19.60;99.90;;;;;;7344809;19;110574;-73
2023/07/10 05:30:21;;;;;;;;;;;19.60;99.90;;;;;;7336535;19;109096;-72
2023/07/10 05:32:48;;;;;;;;;;;19.60;99.90;;;;;;7340991;19;109357;-72
2023/07/10 05:35:15;;;;;;;;;;;19.70;99.90;;;;;;7336698;19;108717;-73
2023/07/10 05:37:43;;;;;;;;;;;19.80;99.90;;;;;;7340083;19;108154;-72
2023/07/10 05:40:10;;;;;;;;;;;19.90;99.90;;;;;;7336964;19;113464;-73
2023/07/10 05:42:38;;;;;;;;;;;19.90;99.90;;;;;;7340570;19;108974;-73
2023/07/10 05:45:05;;;;;;;;;;;20.00;99.90;;;;;;7338474;19;108733;-71
2023/07/10 05:47:33;;;;;;;;;;;20.10;99.90;;;;;;7340849;19;112922;-71
2023/07/10 05:50:00;;;;;;;;;;;20.20;99.90;;;;;;7338768;19;109592;-70
2023/07/10 05:52:27;;;;;;;;;;;20.30;99.90;;;;;;7334738;19;109407;-70
2023/07/10 05:54:54;;;;;;;;;;;20.30;99.90;;;;;;7337320;19;108724;-71
2023/07/10 05:57:22;;;;;;;;;;;20.40;99.90;;;;;;7337947;19;109153;-72
2023/07/10 05:59:50;;;;;;;;;;;20.50;99.90;;;;;;7335501;19;110574;-71
2023/07/10 06:02:17;;;;;;;;;;;20.60;99.90;;;;;;7334592;19;108886;-71
2023/07/10 06:04:44;;;;;;;;;;;20.70;99.90;;;;;;7336265;19;109764;-70
2023/07/10 06:07:11;;;;;;;;;;;20.70;99.90;;;;;;7335254;19;109127;-72
2023/07/10 06:09:39;;;;;;;;;;;20.80;99.90;;;;;;7344812;19;109221;-71
2023/07/10 06:12:06;;;;;;;;;;;20.90;99.90;;;;;;7335820;19;109806;-71
2023/07/10 06:14:33;;;;;;;;;;;21.00;99.90;;;;;;7337469;19;108465;-72
2023/07/10 06:17:01;;;;;;;;;;;21.10;99.90;;;;;;7332662;19;109511;-71
2023/07/10 06:19:28;;;;;;;;;;;21.20;99.90;;;;;;7337052;19;109669;-71
2023/07/10 06:22:08;;;;;;;;;;;21.30;99.90;;;;;;7334760;19;109009;-70
2023/07/10 06:24:35;;;;;;;;;;;21.30;99.90;;;;;;7333932;19;110826;-71
2023/07/10 06:27:02;;;;;;;;;;;21.40;99.90;;;;;;7336077;19;108942;-72
2023/07/10 06:29:31;;;;;;;;;;;21.50;99.90;;;;;;7338016;19;108586;-75
2023/07/10 06:31:59;;;;;;;;;;;21.50;99.90;;;;;;7340545;19;110646;-72
2023/07/10 06:34:28;;;;;;;;;;;21.60;99.90;;;;;;7336593;19;108474;-73
2023/07/10 06:36:55;;;;;;;;;;;21.60;99.90;;;;;;7336771;19;110167;-73
2023/07/10 06:39:22;;;;;;;;;;;21.70;99.90;;;;;;7331527;19;110516;-73
2023/07/10 06:41:49;;;;;;;;;;;21.70;99.90;;;;;;7333742;19;109143;-73
2023/07/10 06:44:16;;;;;;;;;;;21.80;99.90;;;;;;7330971;19;111169;-73
2023/07/10 06:46:43;;;;;;;;;;;21.90;99.90;;;;;;7333968;19;114355;-74
2023/07/10 06:49:11;;;;;;;;;;;21.90;99.90;;;;;;7336965;19;108610;-73
2023/07/10 06:51:38;;;;;;;;;;;22.00;99.90;;;;;;7335879;19;109972;-74
2023/07/10 06:54:06;;;;;;;;;;;22.10;99.90;;;;;;7336858;19;110297;-73
2023/07/10 06:56:33;;;;;;;;;;;22.10;99.90;;;;;;7337640;19;108952;-72
2023/07/10 06:59:00;;;;;;;;;;;22.20;99.90;;;;;;7333168;19;110093;-73
2023/07/10 07:01:27;;;;;;;;;;;22.30;99.90;;;;;;7335225;19;108786;-73
2023/07/10 07:03:55;;;;;;;;;;;22.30;99.90;;;;;;7335984;19;109215;-73
2023/07/10 07:06:22;;;;;;;;;;;22.40;99.90;;;;;;7331088;19;108839;-73
2023/07/10 07:08:51;;;;;;;;;;;22.40;99.90;;;;;;7331462;19;110124;-73
2023/07/10 07:11:18;;;;;;;;;;;22.50;99.90;;;;;;7337039;19;114096;-72
2023/07/10 07:13:46;;;;;;;;;;;22.50;99.90;;;;;;7335089;19;108926;-74
2023/07/10 07:16:13;;;;;;;;;;;22.60;99.90;;;;;;7341547;19;108296;-73
2023/07/10 07:18:40;;;;;;;;;;;22.60;99.90;;;;;;7334348;19;110322;-73
2023/07/10 07:21:13;;;;;;;;;;;22.60;99.90;;;;;;7335747;19;108267;-74
2023/07/10 07:23:40;;;;;;;;;;;22.60;99.90;;;;;;7334380;19;109048;-73
2023/07/10 07:26:07;;;;;;;;;;;22.50;99.90;;;;;;7332956;19;111524;-73
2023/07/10 07:28:35;;;;;;;;;;;22.50;99.90;;;;;;7336225;19;109306;-73
2023/07/10 07:31:02;;;;;;;;;;;22.60;99.90;;;;;;7333957;19;108796;-73
2023/07/10 07:33:30;;;;;;;;;;;22.70;99.90;;;;;;7332727;19;110397;-72
2023/07/10 07:35:59;;;;;;;;;;;22.80;99.90;;;;;;7333909;19;108486;-73
2023/07/10 07:38:28;;;;;;;;;;;22.80;99.90;;;;;;7336310;19;108570;-72
2023/07/10 07:40:59;;;;;;;;;;;22.90;99.90;;;;;;7332353;19;108896;-73
2023/07/10 07:43:26;;;;;;;;;;;23.00;99.90;;;;;;7331928;19;109137;-73
2023/07/10 07:45:54;;;;;;;;;;;23.10;99.90;;;;;;7329546;19;109187;-72
2023/07/10 07:48:21;;;;;;;;;;;23.20;99.90;;;;;;7332429;19;110968;-74
2023/07/10 07:50:55;;;;;;;;;;;23.30;99.90;;;;;;7333743;19;110672;-73
2023/07/10 07:53:22;;;;;;;;;;;23.40;99.90;;;;;;7334117;19;109112;-73
2023/07/10 07:55:49;;;;;;;;;;;23.40;99.90;;;;;;7333638;19;108336;-73
2023/07/10 07:58:17;;;;;;;;;;;23.50;99.90;;;;;;7340718;19;108858;-74
2023/07/10 08:00:44;;;;;;;;;;;23.60;99.90;;;;;;7333727;19;109910;-74
2023/07/10 08:03:12;;;;;;;;;;;23.70;99.90;;;;;;7334493;19;109152;-73
2023/07/10 08:05:39;;;;;;;;;;;23.70;99.90;;;;;;7332893;19;109120;-72
2023/07/10 08:08:08;;;;;;;;;;;23.70;99.90;;;;;;7332967;19;111247;-72
2023/07/10 08:10:35;;;;;;;;;;;23.80;99.90;;;;;;7330325;19;109232;-72
2023/07/10 08:13:04;;;;;;;;;;;23.90;99.90;;;;;;7336071;19;109805;-72
2023/07/10 08:15:31;;;;;;;;;;;23.90;99.90;;;;;;7327920;19;108908;-73
2023/07/10 08:17:58;;;;;;;;;;;24.00;99.90;;;;;;7339437;19;109795;-73
2023/07/10 08:20:25;;;;;;;;;;;24.10;99.90;;;;;;7344167;19;110175;-71
2023/07/10 08:22:53;;;;;;;;;;;24.10;99.90;;;;;;7342470;19;110207;-73
2023/07/10 08:25:20;;;;;;;;;;;24.20;99.90;;;;;;7338421;19;109446;-72
2023/07/10 08:27:47;;;;;;;;;;;24.20;99.90;;;;;;7339951;19;109425;-73
2023/07/10 08:30:15;;;;;;;;;;;24.30;99.90;;;;;;7341429;19;110376;-73
2023/07/10 08:32:42;;;;;;;;;;;24.30;99.90;;;;;;7341822;19;109139;-73
2023/07/10 08:35:09;;;;;;;;;;;24.40;99.90;;;;;;7340177;19;109086;-73
2023/07/10 08:37:37;;;;;;;;;;;24.40;99.90;;;;;;7338686;19;109091;-73
2023/07/10 08:40:12;;;;;;;;;;;24.50;99.90;;;;;;7333144;19;109884;-74
2023/07/10 08:42:39;;;;;;;;;;;24.50;99.90;;;;;;7344622;19;113821;-72
2023/07/10 08:45:18;;;;;;;;;;;24.60;99.90;;;;;;7337154;19;109559;-73
2023/07/10 08:47:48;;;;;;;;;;;24.60;99.90;;;;;;7335936;19;109957;-74
2023/07/10 08:50:22;;;;;;;;;;;24.70;99.90;;;;;;7337297;19;109363;-74
2023/07/10 08:53:08;;;;;;;;;;;24.80;99.90;;;;;;7335436;19;110435;-73
2023/07/10 08:55:55;;;;;;;;;;;24.80;99.90;;;;;;7337267;19;108974;-74
2023/07/10 08:58:24;;;;;;;;;;;24.90;99.90;;;;;;7336697;19;108664;-74
2023/07/10 09:00:55;;;;;;;;;;;24.90;99.90;;;;;;7339823;19;109138;-73
2023/07/10 09:03:22;;;;;;;;;;;25.00;99.90;;;;;;7337127;19;108857;-74
2023/07/10 09:05:50;;;;;;;;;;;25.10;99.90;;;;;;7343108;19;110924;-74
2023/07/10 09:08:18;;;;;;;;;;;25.10;99.90;;;;;;7338668;19;109658;-73
2023/07/10 09:10:50;;;;;;;;;;;25.10;99.90;;;;;;7337727;19;109103;-73
2023/07/10 09:13:37;;;;;;;;;;;25.20;99.90;;;;;;7339950;19;109994;-73
2023/07/10 09:16:12;;;;;;;;;;;25.30;99.90;;;;;;7338460;19;109339;-74
2023/07/10 09:18:55;;;;;;;;;;;25.30;99.90;;;;;;7338460;19;110838;-73
2023/07/10 09:21:27;;;;;;;;;;;25.40;99.90;;;;;;7337304;19;112130;-74
2023/07/10 09:23:55;;;;;;;;;;;25.40;99.90;;;;;;7340017;19;108818;-74
2023/07/10 09:26:27;;;;;;;;;;;25.50;99.90;;;;;;7335266;19;109349;-74
2023/07/10 09:29:09;;;;;;;;;;;25.60;99.90;;;;;;7339259;19;109800;-74
2023/07/10 09:31:46;;;;;;;;;;;25.60;99.90;;;;;;7337863;19;109203;-74
2023/07/10 09:34:13;;;;;;;;;;;25.70;99.90;;;;;;7336394;19;110087;-74
2023/07/10 09:36:40;;;;;;;;;;;25.80;99.90;;;;;;7338140;19;108574;-74
2023/07/10 09:39:11;;;;;;;;;;;25.80;99.70;;;;;;7336364;19;108695;-73
2023/07/10 09:41:38;;;;;;;;;;;25.70;99.90;;;;;;7335985;19;112064;-73
2023/07/10 09:44:21;;;;;;;;;;;25.80;99.90;;;;;;7338602;19;108613;-74
2023/07/10 09:46:49;;;;;;;;;;;25.70;99.90;;;;;;7338297;19;109159;-74
2023/07/10 09:49:21;;;;;;;;;;;25.70;99.90;;;;;;7336472;19;109168;-73
2023/07/10 09:51:56;;;;;;;;;;;25.80;99.90;;;;;;7343443;19;108742;-74
2023/07/10 09:54:23;;;;;;;;;;;25.90;99.90;;;;;;7336050;19;110462;-74
2023/07/10 09:56:51;;;;;;;;;;;26.00;99.90;;;;;;7337389;19;108366;-75
2023/07/10 09:59:19;;;;;;;;;;;26.20;99.90;;;;;;7337130;19;110196;-73
2023/07/10 10:01:47;;;;;;;;;;;26.20;99.90;;;;;;7336944;19;109156;-75
2023/07/10 10:04:19;;;;;;;;;;;26.30;99.90;;;;;;7338986;19;109728;-73
2023/07/10 10:06:53;;;;;;;;;;;26.30;99.90;;;;;;7337102;19;108518;-74
2023/07/10 10:09:22;;;;;;;;;;;26.40;99.90;;;;;;7337650;19;109408;-74
2023/07/10 10:11:51;;;;;;;;;;;26.50;99.90;;;;;;7343535;19;108649;-74
2023/07/10 10:14:23;;;;;;;;;;;26.60;99.90;;;;;;7336312;19;109473;-73
2023/07/10 10:16:55;;;;;;;;;;;26.60;99.90;;;;;;7337666;19;108746;-73
2023/07/10 10:19:29;;;;;;;;;;;26.60;99.90;;;;;;7338295;19;109710;-74
2023/07/10 10:21:57;;;;;;;;;;;26.60;99.90;;;;;;7335660;19;109429;-74
2023/07/10 10:24:25;;;;;;;;;;;26.70;99.60;;;;;;7339954;19;108967;-74
2023/07/10 10:26:53;;;;;;;;;;;26.70;99.50;;;;;;7340094;19;109949;-74
2023/07/10 10:29:29;;;;;;;;;;;26.90;99.30;;;;;;7337721;19;109085;-75
2023/07/10 10:31:56;;;;;;;;;;;27.00;99.10;;;;;;7339238;19;108936;-74
2023/07/10 10:34:29;;;;;;;;;;;27.00;99.00;;;;;;7342499;19;109377;-74
2023/07/10 10:36:56;;;;;;;;;;;27.10;99.50;;;;;;7335901;19;109501;-74
2023/07/10 10:39:44;;;;;;;;;;;27.30;99.50;;;;;;7335413;19;108848;-73
2023/07/10 10:42:17;;;;;;;;;;;27.30;98.30;;;;;;7337434;19;109897;-73
2023/07/10 10:44:56;;;;;;;;;;;27.30;98.90;;;;;;7333458;19;109273;-74
2023/07/10 10:47:23;;;;;;;;;;;27.40;99.00;;;;;;7335569;19;109470;-73
2023/07/10 10:50:09;;;;;;;;;;;27.50;99.60;;;;;;7337004;19;109200;-74
2023/07/10 10:52:50;;;;;;;;;;;27.50;99.00;;;;;;7335754;19;108848;-73
2023/07/10 10:55:35;;;;;;;;;;;27.60;99.00;;;;;;7335669;19;108575;-74
2023/07/10 10:58:18;;;;;;;;;;;27.70;99.10;;;;;;7342507;19;109292;-73
2023/07/10 11:01:03;;;;;;;;;;;27.80;97.70;;;;;;7336457;19;109696;-74
2023/07/10 11:03:31;;;;;;;;;;;27.80;98.00;;;;;;7336520;19;109704;-74
2023/07/10 11:06:19;;;;;;;;;;;27.80;98.20;;;;;;7335897;19;108426;-74
2023/07/10 11:08:48;;;;;;;;;;;27.90;98.20;;;;;;7335204;19;110141;-74
2023/07/10 11:11:48;;;;;;;;;;;27.90;98.10;;;;;;7336045;19;110090;-74
2023/07/10 11:14:15;;;;;;;;;;;27.80;95.60;;;;;;7330932;19;109231;-74
2023/07/10 11:16:43;;;;;;;;;;;27.90;97.90;;;;;;7335759;19;108572;-74
2023/07/10 11:19:14;;;;;;;;;;;28.00;97.50;;;;;;7333855;19;110003;-75
2023/07/10 11:21:41;;;;;;;;;;;28.10;97.30;;;;;;7340052;19;109090;-74
2023/07/10 11:24:16;;;;;;;;;;;28.00;97.00;;;;;;7333837;19;110033;-74
2023/07/10 11:26:48;;;;;;;;;;;28.00;94.70;;;;;;7333991;19;109572;-74
2023/07/10 11:29:28;;;;;;;;;;;27.90;96.90;;;;;;7332768;19;108394;-74
2023/07/10 11:31:57;;;;;;;;;;;27.80;95.70;;;;;;7334990;19;111073;-74
2023/07/10 11:34:24;;;;;;;;;;;27.90;97.40;;;;;;7333357;19;109728;-74
2023/07/10 11:36:51;;;;;;;;;;;28.10;97.40;;;;;;7333547;19;110205;-74
2023/07/10 11:39:26;;;;;;;;;;;28.30;97.00;;;;;;7332251;19;112130;-75
2023/07/10 11:41:53;;;;;;;;;;;28.50;97.20;;;;;;7335844;19;109120;-74
2023/07/10 11:44:20;;;;;;;;;;;28.70;96.90;;;;;;7338981;19;108437;-75
2023/07/10 11:47:08;;;;;;;;;;;28.90;96.20;;;;;;7336395;19;108905;-74
2023/07/10 11:49:35;;;;;;;;;;;28.90;96.70;;;;;;7333356;19;109513;-74
2023/07/10 11:52:14;;;;;;;;;;;28.90;97.30;;;;;;7333505;19;109712;-73
2023/07/10 11:54:45;;;;;;;;;;;29.00;96.10;;;;;;7335521;19;108704;-74
2023/07/10 11:57:12;;;;;;;;;;;29.10;96.30;;;;;;7334213;19;108610;-74
2023/07/10 11:59:47;;;;;;;;;;;29.20;96.60;;;;;;7335260;19;108814;-75
2023/07/10 12:02:26;;;;;;;;;;;29.30;95.90;;;;;;7334316;19;110413;-75
2023/07/10 12:04:53;;;;;;;;;;;29.20;95.40;;;;;;7339974;19;109172;-75
2023/07/10 12:07:21;;;;;;;;;;;29.10;95.90;;;;;;7333175;19;108484;-75
2023/07/10 12:09:58;;;;;;;;;;;29.00;96.00;;;;;;7334636;19;108370;-75
2023/07/10 12:12:29;;;;;;;;;;;29.00;95.70;;;;;;7332173;19;109414;-74
2023/07/10 12:14:57;;;;;;;;;;;29.10;96.30;;;;;;7331201;19;109013;-74
2023/07/10 12:17:24;;;;;;;;;;;29.00;92.50;;;;;;7331315;19;110897;-74
2023/07/10 12:20:19;;;;;;;;;;;29.00;95.20;;;;;;7332280;19;109779;-75
2023/07/10 12:22:46;;;;;;;;;;;29.10;95.70;;;;;;7335264;19;108599;-75
2023/07/10 12:25:15;;;;;;;;;;;29.30;96.20;;;;;;7331947;19;112911;-75
2023/07/10 12:27:42;;;;;;;;;;;29.40;95.20;;;;;;7338245;19;109430;-75
2023/07/10 12:30:13;;;;;;;;;;;29.50;95.10;;;;;;7333919;19;109405;-77
2023/07/10 12:32:41;;;;;;;;;;;29.60;95.50;;;;;;7336471;19;109430;-74
2023/07/10 12:35:16;;;;;;;;;;;29.80;95.80;;;;;;7324264;19;109503;-64
2023/07/10 12:37:45;;;;;;;;;;;30.10;95.20;;;;;;7330540;19;110980;-64
2023/07/10 12:40:14;;;;;;;;;;;30.40;95.50;;;;;;7332359;19;109270;-64
2023/07/10 12:42:42;;;;;;;;;;;30.70;96.00;;;;;;7331637;19;109574;-64
2023/07/10 12:45:29;;;;;;;;;;;31.00;94.70;;;;;;7334495;19;109608;-64
2023/07/10 12:48:10;;;;;;;;;;;31.20;94.30;;;;;;7332337;19;109504;-63
2023/07/10 12:50:49;;;;;;;;;;;31.40;93.60;;;;;;7336467;19;109641;-65
2023/07/10 12:53:20;;;;;;;;;;;31.50;93.30;;;;;;7331982;19;109122;-64
2023/07/10 12:55:50;;;;;;;;;;;31.60;93.40;;;;;;7329142;19;108918;-64
2023/07/10 12:58:34;;;;;;;;;;;31.70;92.60;;;;;;7332691;19;109404;-65
2023/07/10 13:01:14;;;;;;;;;;;31.80;92.40;;;;;;7332567;19;108871;-67
2023/07/10 13:03:57;;;;;;;;;;;32.00;92.10;;;;;;7333871;19;118850;-65
2023/07/10 13:06:24;;;;;;;;;;;32.10;92.00;;;;;;7339485;19;108806;-64
2023/07/10 13:08:55;;;;;;;;;;;32.20;91.80;;;;;;7338535;19;110112;-64
2023/07/10 13:11:23;;;;;;;;;;;32.10;91.00;;;;;;7341030;19;108247;-65
2023/07/10 13:14:06;;;;;;;;;;;32.10;90.80;;;;;;7342023;19;108709;-64
2023/07/10 13:16:42;;;;;;;;;;;32.20;90.90;;;;;;7340873;19;110730;-65
2023/07/10 13:19:09;;;;;;;;;;;32.20;90.70;;;;;;7341123;19;109291;-64
2023/07/10 13:21:36;;;;;;;;;;;32.20;90.60;;;;;;7338925;19;109428;-64
2023/07/10 13:24:03;;;;;;;;;;;32.30;87.80;;;;;;7337864;19;108826;-64
2023/07/10 13:26:30;;;;;;;;;;;32.30;90.50;;;;;;7338701;19;108896;-65
2023/07/10 13:28:57;;;;;;;;;;;32.40;89.30;;;;;;7340287;19;110626;-65
2023/07/10 13:31:28;;;;;;;;;;;32.40;88.00;;;;;;7337990;19;109700;-65
2023/07/10 13:33:55;;;;;;;;;;;32.40;86.40;;;;;;7340010;19;108705;-64
2023/07/10 13:36:24;;;;;;;;;;;32.40;90.40;;;;;;7340258;19;109772;-65
2023/07/10 13:38:51;;;;;;;;;;;32.50;90.70;;;;;;7339862;19;108722;-64
2023/07/10 13:41:20;;;;;;;;;;;32.60;90.10;;;;;;7338283;19;112814;-64
2023/07/10 13:43:47;;;;;;;;;;;32.80;90.50;;;;;;7339703;19;108729;-64
2023/07/10 13:46:18;;;;;;;;;;;32.80;88.70;;;;;;7337620;19;109587;-63
2023/07/10 13:48:46;;;;;;;;;;;32.90;88.40;;;;;;7339905;19;110756;-64
2023/07/10 13:51:13;;;;;;;;;;;33.00;87.90;;;;;;7335321;19;110684;-64
2023/07/10 13:53:42;;;;;;;;;;;33.10;87.20;;;;;;7335911;19;108873;-66
2023/07/10 13:56:14;;;;;;;;;;;33.10;87.90;;;;;;7333833;19;109706;-64
2023/07/10 13:58:42;;;;;;;;;;;33.10;87.90;;;;;;7345457;19;110429;-64
2023/07/10 14:01:11;;;;;;;;;;;33.20;88.20;;;;;;7335219;19;110708;-64
2023/07/10 14:03:38;;;;;;;;;;;33.30;88.20;;;;;;7335592;19;108838;-64
2023/07/10 14:06:21;;;;;;;;;;;33.40;87.50;;;;;;7338151;19;108981;-64
2023/07/10 14:08:48;;;;;;;;;;;33.40;86.30;;;;;;7336012;19;109952;-64
2023/07/10 14:11:16;;;;;;;;;;;33.40;85.40;;;;;;7338545;19;108514;-63
2023/07/10 14:13:43;;;;;;;;;;;33.30;85.30;;;;;;7337922;19;108846;-64
2023/07/10 14:16:15;;;;;;;;;;;33.20;85.10;;;;;;7333674;19;112445;-64
2023/07/10 14:18:42;;;;;;;;;;;33.20;84.90;;;;;;7342931;19;108506;-64